sensor_id;sensor_type;location;lat;lon;timestamp;temperature;humidity
35111;DHT22;21290;50.158;8.658;2022-11-20T00:00:05;2.50;99.90
35111;DHT22;21290;50.158;8.658;2022-11-20T00:02:31;2.50;99.90
35111;DHT22;21290;50.158;8.658;2022-11-20T00:04:58;2.60;99.90
35111;DHT22;21290;50.158;8.658;2022-11-20T00:07:24;2.50;99.90
35111;DHT22;21290;50.158;8.658;2022-11-20T00:09:51;2.60;99.90
35111;DHT22;21290;50.158;8.658;2022-11-20T00:12:17;2.50;99.90
35111;DHT22;21290;50.158;8.658;2022-11-20T00:14:44;2.50;99.90
35111;DHT22;21290;50.158;8.658;2022-11-20T00:17:11;2.60;99.90
35111;DHT22;21290;50.158;8.658;2022-11-20T00:19:37;2.60;99.90
35111;DHT22;21290;50.158;8.658;2022-11-20T00:22:04;2.60;99.90
35111;DHT22;21290;50.158;8.658;2022-11-20T00:24:30;2.60;99.90
35111;DHT22;21290;50.158;8.658;2022-11-20T00:26:56;2.60;99.90
35111;DHT22;21290;50.158;8.658;2022-11-20T00:29:23;2.60;99.90
35111;DHT22;21290;50.158;8.658;2022-11-20T00:31:49;2.60;99.90
35111;DHT22;21290;50.158;8.658;2022-11-20T00:34:16;2.50;99.90
35111;DHT22;21290;50.158;8.658;2022-11-20T00:36:42;2.50;99.90
35111;DHT22;21290;50.158;8.658;2022-11-20T00:39:09;2.50;99.90
35111;DHT22;21290;50.158;8.658;2022-11-20T00:41:35;2.50;99.90
35111;DHT22;21290;50.158;8.658;2022-11-20T00:44:02;2.50;99.90
35111;DHT22;21290;50.158;8.658;2022-11-20T00:46:29;2.50;99.90
35111;DHT22;21290;50.158;8.658;2022-11-20T00:48:56;2.50;99.90
35111;DHT22;21290;50.158;8.658;2022-11-20T00:51:23;2.50;99.90
35111;DHT22;21290;50.158;8.658;2022-11-20T00:53:50;2.50;99.90
35111;DHT22;21290;50.158;8.658;2022-11-20T00:56:17;2.50;99.90
35111;DHT22;21290;50.158;8.658;2022-11-20T00:58:45;2.50;99.90
35111;DHT22;21290;50.158;8.658;2022-11-20T01:01:13;2.50;99.90
35111;DHT22;21290;50.158;8.658;2022-11-20T01:03:41;2.50;99.90
35111;DHT22;21290;50.158;8.658;2022-11-20T01:06:10;2.50;99.90
35111;DHT22;21290;50.158;8.658;2022-11-20T01:08:37;2.50;99.90
35111;DHT22;21290;50.158;8.658;2022-11-20T01:11:14;2.50;99.90
35111;DHT22;21290;50.158;8.658;2022-11-20T01:13:41;2.60;99.90
35111;DHT22;21290;50.158;8.658;2022-11-20T01:16:09;2.60;99.90
35111;DHT22;21290;50.158;8.658;2022-11-20T01:18:37;2.50;99.90
35111;DHT22;21290;50.158;8.658;2022-11-20T01:21:04;2.50;99.90
35111;DHT22;21290;50.158;8.658;2022-11-20T01:23:35;2.50;99.90
35111;DHT22;21290;50.158;8.658;2022-11-20T01:26:06;2.50;99.90
35111;DHT22;21290;50.158;8.658;2022-11-20T01:28:33;2.40;99.90
35111;DHT22;21290;50.158;8.658;2022-11-20T01:31:00;2.40;99.90
35111;DHT22;21290;50.158;8.658;2022-11-20T01:33:27;2.40;99.90
35111;DHT22;21290;50.158;8.658;2022-11-20T01:35:53;2.40;99.90
35111;DHT22;21290;50.158;8.658;2022-11-20T01:38:29;2.30;99.90
35111;DHT22;21290;50.158;8.658;2022-11-20T01:40:55;2.30;99.90
35111;DHT22;21290;50.158;8.658;2022-11-20T01:43:22;2.30;99.90
35111;DHT22;21290;50.158;8.658;2022-11-20T01:48:21;2.20;99.90
35111;DHT22;21290;50.158;8.658;2022-11-20T01:50:49;2.20;99.90
35111;DHT22;21290;50.158;8.658;2022-11-20T01:53:17;2.20;99.90
35111;DHT22;21290;50.158;8.658;2022-11-20T01:55:46;2.20;99.90
35111;DHT22;21290;50.158;8.658;2022-11-20T01:58:14;2.20;99.90
35111;DHT22;21290;50.158;8.658;2022-11-20T02:00:41;2.10;99.90
35111;DHT22;21290;50.158;8.658;2022-11-20T02:03:12;2.10;99.90
35111;DHT22;21290;50.158;8.658;2022-11-20T02:05:44;2.10;99.90
35111;DHT22;21290;50.158;8.658;2022-11-20T02:08:12;2.10;99.90
35111;DHT22;21290;50.158;8.658;2022-11-20T02:10:39;2.10;99.90
35111;DHT22;21290;50.158;8.658;2022-11-20T02:13:06;2.10;99.90
35111;DHT22;21290;50.158;8.658;2022-11-20T02:15:51;2.10;99.90
35111;DHT22;21290;50.158;8.658;2022-11-20T02:18:18;2.10;99.90
35111;DHT22;21290;50.158;8.658;2022-11-20T02:20:46;2.10;99.90
35111;DHT22;21290;50.158;8.658;2022-11-20T02:23:31;2.10;99.90
35111;DHT22;21290;50.158;8.658;2022-11-20T02:25:59;2.10;99.90
35111;DHT22;21290;50.158;8.658;2022-11-20T02:28:26;2.10;99.90
35111;DHT22;21290;50.158;8.658;2022-11-20T02:30:53;2.10;99.90
35111;DHT22;21290;50.158;8.658;2022-11-20T02:33:19;2.10;99.90
35111;DHT22;21290;50.158;8.658;2022-11-20T02:35:46;2.10;99.90
35111;DHT22;21290;50.158;8.658;2022-11-20T02:38:12;2.10;99.90
35111;DHT22;21290;50.158;8.658;2022-11-20T02:40:39;2.00;99.90
35111;DHT22;21290;50.158;8.658;2022-11-20T02:43:06;2.00;99.90
35111;DHT22;21290;50.158;8.658;2022-11-20T02:45:33;2.00;99.90
35111;DHT22;21290;50.158;8.658;2022-11-20T02:47:59;2.00;99.90
35111;DHT22;21290;50.158;8.658;2022-11-20T02:50:26;2.00;99.90
35111;DHT22;21290;50.158;8.658;2022-11-20T02:52:52;2.00;99.90
35111;DHT22;21290;50.158;8.658;2022-11-20T02:55:19;2.00;99.90
35111;DHT22;21290;50.158;8.658;2022-11-20T02:57:45;1.90;99.90
35111;DHT22;21290;50.158;8.658;2022-11-20T03:00:12;1.90;99.90
35111;DHT22;21290;50.158;8.658;2022-11-20T03:02:38;1.90;99.90
35111;DHT22;21290;50.158;8.658;2022-11-20T03:05:05;1.90;99.90
35111;DHT22;21290;50.158;8.658;2022-11-20T03:07:31;1.90;99.90
35111;DHT22;21290;50.158;8.658;2022-11-20T03:09:58;1.80;99.90
35111;DHT22;21290;50.158;8.658;2022-11-20T03:12:25;1.80;99.90
35111;DHT22;21290;50.158;8.658;2022-11-20T03:14:51;1.80;99.90
35111;DHT22;21290;50.158;8.658;2022-11-20T03:17:19;1.80;99.90
35111;DHT22;21290;50.158;8.658;2022-11-20T03:19:45;1.80;99.90
35111;DHT22;21290;50.158;8.658;2022-11-20T03:22:12;1.80;99.90
35111;DHT22;21290;50.158;8.658;2022-11-20T03:24:38;1.80;99.90
35111;DHT22;21290;50.158;8.658;2022-11-20T03:27:05;1.80;99.90
35111;DHT22;21290;50.158;8.658;2022-11-20T03:29:31;1.80;99.90
35111;DHT22;21290;50.158;8.658;2022-11-20T03:31:58;1.80;99.90
35111;DHT22;21290;50.158;8.658;2022-11-20T03:34:25;1.70;99.90
35111;DHT22;21290;50.158;8.658;2022-11-20T03:36:51;1.80;99.90
35111;DHT22;21290;50.158;8.658;2022-11-20T03:39:18;1.80;99.90
35111;DHT22;21290;50.158;8.658;2022-11-20T03:41:45;1.70;99.90
35111;DHT22;21290;50.158;8.658;2022-11-20T03:44:11;1.70;99.90
35111;DHT22;21290;50.158;8.658;2022-11-20T03:46:38;1.80;99.90
35111;DHT22;21290;50.158;8.658;2022-11-20T03:49:05;1.70;99.90
35111;DHT22;21290;50.158;8.658;2022-11-20T03:51:32;1.80;99.90
35111;DHT22;21290;50.158;8.658;2022-11-20T03:54:00;1.80;99.90
35111;DHT22;21290;50.158;8.658;2022-11-20T03:56:28;1.80;99.90
35111;DHT22;21290;50.158;8.658;2022-11-20T03:58:55;1.80;99.90
35111;DHT22;21290;50.158;8.658;2022-11-20T04:01:23;1.80;99.90
35111;DHT22;21290;50.158;8.658;2022-11-20T04:03:51;1.80;99.90
35111;DHT22;21290;50.158;8.658;2022-11-20T04:06:19;1.90;99.90
35111;DHT22;21290;50.158;8.658;2022-11-20T04:08:46;1.90;99.90
35111;DHT22;21290;50.158;8.658;2022-11-20T04:11:26;1.90;99.90
35111;DHT22;21290;50.158;8.658;2022-11-20T04:13:54;1.80;99.90
35111;DHT22;21290;50.158;8.658;2022-11-20T04:16:21;1.80;99.90
35111;DHT22;21290;50.158;8.658;2022-11-20T04:18:54;1.80;99.90
35111;DHT22;21290;50.158;8.658;2022-11-20T04:21:21;1.80;99.90
35111;DHT22;21290;50.158;8.658;2022-11-20T04:23:48;1.70;99.90
35111;DHT22;21290;50.158;8.658;2022-11-20T04:26:15;1.70;99.90
35111;DHT22;21290;50.158;8.658;2022-11-20T04:28:42;1.70;99.90
35111;DHT22;21290;50.158;8.658;2022-11-20T04:31:09;1.80;99.90
35111;DHT22;21290;50.158;8.658;2022-11-20T04:33:36;1.80;99.90
35111;DHT22;21290;50.158;8.658;2022-11-20T04:36:04;1.80;99.90
35111;DHT22;21290;50.158;8.658;2022-11-20T04:38:31;1.80;99.90
35111;DHT22;21290;50.158;8.658;2022-11-20T04:40:58;1.80;99.90
35111;DHT22;21290;50.158;8.658;2022-11-20T04:43:25;1.90;99.90
35111;DHT22;21290;50.158;8.658;2022-11-20T04:45:53;1.80;99.90
35111;DHT22;21290;50.158;8.658;2022-11-20T04:48:19;1.80;99.90
35111;DHT22;21290;50.158;8.658;2022-11-20T04:50:46;1.80;99.90
35111;DHT22;21290;50.158;8.658;2022-11-20T04:53:13;1.80;99.90
35111;DHT22;21290;50.158;8.658;2022-11-20T04:55:39;1.80;99.90
35111;DHT22;21290;50.158;8.658;2022-11-20T04:58:06;1.90;99.90
35111;DHT22;21290;50.158;8.658;2022-11-20T05:00:32;1.90;99.90
35111;DHT22;21290;50.158;8.658;2022-11-20T05:02:59;1.90;99.90
35111;DHT22;21290;50.158;8.658;2022-11-20T05:05:26;1.90;99.90
35111;DHT22;21290;50.158;8.658;2022-11-20T05:07:52;1.90;99.90
35111;DHT22;21290;50.158;8.658;2022-11-20T05:10:19;1.90;99.90
35111;DHT22;21290;50.158;8.658;2022-11-20T05:12:45;1.90;99.90
35111;DHT22;21290;50.158;8.658;2022-11-20T05:15:12;1.90;99.90
35111;DHT22;21290;50.158;8.658;2022-11-20T05:17:38;1.90;99.90
35111;DHT22;21290;50.158;8.658;2022-11-20T05:20:05;1.90;99.90
35111;DHT22;21290;50.158;8.658;2022-11-20T05:22:32;1.90;99.90
35111;DHT22;21290;50.158;8.658;2022-11-20T05:24:58;1.90;99.90
35111;DHT22;21290;50.158;8.658;2022-11-20T05:27:25;1.90;99.90
35111;DHT22;21290;50.158;8.658;2022-11-20T05:29:51;1.90;99.90
35111;DHT22;21290;50.158;8.658;2022-11-20T05:32:18;1.90;99.90
35111;DHT22;21290;50.158;8.658;2022-11-20T05:34:45;1.90;99.90
35111;DHT22;21290;50.158;8.658;2022-11-20T05:37:11;1.80;99.90
35111;DHT22;21290;50.158;8.658;2022-11-20T05:39:38;1.90;99.90
35111;DHT22;21290;50.158;8.658;2022-11-20T05:42:04;1.90;99.90
35111;DHT22;21290;50.158;8.658;2022-11-20T05:44:49;1.90;99.90
35111;DHT22;21290;50.158;8.658;2022-11-20T05:47:16;1.90;99.90
35111;DHT22;21290;50.158;8.658;2022-11-20T05:49:42;1.90;99.90
35111;DHT22;21290;50.158;8.658;2022-11-20T05:52:09;1.90;99.90
35111;DHT22;21290;50.158;8.658;2022-11-20T05:54:36;1.90;99.90
35111;DHT22;21290;50.158;8.658;2022-11-20T05:57:02;1.90;99.90
35111;DHT22;21290;50.158;8.658;2022-11-20T05:59:29;1.90;99.90
35111;DHT22;21290;50.158;8.658;2022-11-20T06:01:55;1.90;99.90
35111;DHT22;21290;50.158;8.658;2022-11-20T06:04:22;1.90;99.90
35111;DHT22;21290;50.158;8.658;2022-11-20T06:06:49;1.90;99.90
35111;DHT22;21290;50.158;8.658;2022-11-20T06:09:15;2.00;99.90
35111;DHT22;21290;50.158;8.658;2022-11-20T06:11:42;2.00;99.90
35111;DHT22;21290;50.158;8.658;2022-11-20T06:14:08;2.00;99.90
35111;DHT22;21290;50.158;8.658;2022-11-20T06:16:35;2.00;99.90
35111;DHT22;21290;50.158;8.658;2022-11-20T06:19:01;2.00;99.90
35111;DHT22;21290;50.158;8.658;2022-11-20T06:21:28;2.00;99.90
35111;DHT22;21290;50.158;8.658;2022-11-20T06:23:54;2.00;99.90
35111;DHT22;21290;50.158;8.658;2022-11-20T06:26:22;2.00;99.90
35111;DHT22;21290;50.158;8.658;2022-11-20T06:28:49;2.00;99.90
35111;DHT22;21290;50.158;8.658;2022-11-20T06:31:16;2.10;99.90
35111;DHT22;21290;50.158;8.658;2022-11-20T06:33:43;2.10;99.90
35111;DHT22;21290;50.158;8.658;2022-11-20T06:36:11;2.10;99.90
35111;DHT22;21290;50.158;8.658;2022-11-20T06:38:38;2.10;99.90
35111;DHT22;21290;50.158;8.658;2022-11-20T06:41:05;2.10;99.90
35111;DHT22;21290;50.158;8.658;2022-11-20T06:43:32;2.10;99.90
35111;DHT22;21290;50.158;8.658;2022-11-20T06:45:59;2.10;99.90
35111;DHT22;21290;50.158;8.658;2022-11-20T06:48:26;2.10;99.90
35111;DHT22;21290;50.158;8.658;2022-11-20T06:50:53;2.00;99.90
35111;DHT22;21290;50.158;8.658;2022-11-20T06:53:19;2.00;99.90
35111;DHT22;21290;50.158;8.658;2022-11-20T06:55:46;2.00;99.90
35111;DHT22;21290;50.158;8.658;2022-11-20T06:58:13;2.00;99.90
35111;DHT22;21290;50.158;8.658;2022-11-20T07:00:40;2.10;99.90
35111;DHT22;21290;50.158;8.658;2022-11-20T07:03:09;2.00;99.90
35111;DHT22;21290;50.158;8.658;2022-11-20T07:05:35;2.10;99.90
35111;DHT22;21290;50.158;8.658;2022-11-20T07:08:02;2.00;99.90
35111;DHT22;21290;50.158;8.658;2022-11-20T07:10:29;2.00;99.90
35111;DHT22;21290;50.158;8.658;2022-11-20T07:12:55;1.90;99.90
35111;DHT22;21290;50.158;8.658;2022-11-20T07:15:22;1.80;99.90
35111;DHT22;21290;50.158;8.658;2022-11-20T07:17:49;1.80;99.90
35111;DHT22;21290;50.158;8.658;2022-11-20T07:20:16;1.80;99.90
35111;DHT22;21290;50.158;8.658;2022-11-20T07:22:42;1.80;99.90
35111;DHT22;21290;50.158;8.658;2022-11-20T07:25:09;1.70;99.90
35111;DHT22;21290;50.158;8.658;2022-11-20T07:27:36;1.60;99.90
35111;DHT22;21290;50.158;8.658;2022-11-20T07:30:03;1.70;99.90
35111;DHT22;21290;50.158;8.658;2022-11-20T07:32:30;1.70;99.90
35111;DHT22;21290;50.158;8.658;2022-11-20T07:34:57;1.80;99.90
35111;DHT22;21290;50.158;8.658;2022-11-20T07:37:23;1.90;99.90
35111;DHT22;21290;50.158;8.658;2022-11-20T07:39:50;2.00;99.90
35111;DHT22;21290;50.158;8.658;2022-11-20T07:42:17;2.10;99.90
35111;DHT22;21290;50.158;8.658;2022-11-20T07:44:43;2.00;99.90
35111;DHT22;21290;50.158;8.658;2022-11-20T07:47:10;2.00;99.90
35111;DHT22;21290;50.158;8.658;2022-11-20T07:49:37;2.00;99.90
35111;DHT22;21290;50.158;8.658;2022-11-20T07:52:03;2.00;99.90
35111;DHT22;21290;50.158;8.658;2022-11-20T07:54:30;2.00;99.90
35111;DHT22;21290;50.158;8.658;2022-11-20T07:56:57;2.10;99.90
35111;DHT22;21290;50.158;8.658;2022-11-20T07:59:23;2.10;99.90
35111;DHT22;21290;50.158;8.658;2022-11-20T08:01:50;2.20;99.90
35111;DHT22;21290;50.158;8.658;2022-11-20T08:04:16;2.30;99.90
35111;DHT22;21290;50.158;8.658;2022-11-20T08:06:43;2.40;99.90
35111;DHT22;21290;50.158;8.658;2022-11-20T08:09:10;2.40;99.90
35111;DHT22;21290;50.158;8.658;2022-11-20T08:11:36;2.40;99.90
35111;DHT22;21290;50.158;8.658;2022-11-20T08:14:21;2.40;99.90
35111;DHT22;21290;50.158;8.658;2022-11-20T08:16:48;2.50;99.90
35111;DHT22;21290;50.158;8.658;2022-11-20T08:19:16;2.50;99.90
35111;DHT22;21290;50.158;8.658;2022-11-20T08:21:43;2.60;99.90
35111;DHT22;21290;50.158;8.658;2022-11-20T08:24:10;2.70;99.90
35111;DHT22;21290;50.158;8.658;2022-11-20T08:26:38;2.70;99.90
35111;DHT22;21290;50.158;8.658;2022-11-20T08:29:05;2.80;99.90
35111;DHT22;21290;50.158;8.658;2022-11-20T08:31:32;2.80;99.90
35111;DHT22;21290;50.158;8.658;2022-11-20T08:33:58;2.90;99.90
35111;DHT22;21290;50.158;8.658;2022-11-20T08:36:25;2.90;99.90
35111;DHT22;21290;50.158;8.658;2022-11-20T08:38:53;2.90;99.90
35111;DHT22;21290;50.158;8.658;2022-11-20T08:41:19;3.00;99.90
35111;DHT22;21290;50.158;8.658;2022-11-20T08:46:20;3.00;99.90
35111;DHT22;21290;50.158;8.658;2022-11-20T08:48:46;3.00;99.90
35111;DHT22;21290;50.158;8.658;2022-11-20T08:51:13;3.00;99.90
35111;DHT22;21290;50.158;8.658;2022-11-20T08:53:40;3.00;99.90
35111;DHT22;21290;50.158;8.658;2022-11-20T08:56:06;3.10;99.90
35111;DHT22;21290;50.158;8.658;2022-11-20T08:58:57;3.20;99.90
35111;DHT22;21290;50.158;8.658;2022-11-20T09:01:46;3.30;99.90
35111;DHT22;21290;50.158;8.658;2022-11-20T09:04:12;3.30;99.90
35111;DHT22;21290;50.158;8.658;2022-11-20T09:06:40;3.40;99.90
35111;DHT22;21290;50.158;8.658;2022-11-20T09:09:07;3.40;99.90
35111;DHT22;21290;50.158;8.658;2022-11-20T09:11:34;3.30;99.90
35111;DHT22;21290;50.158;8.658;2022-11-20T09:14:00;3.30;99.90
35111;DHT22;21290;50.158;8.658;2022-11-20T09:16:28;3.30;99.90
35111;DHT22;21290;50.158;8.658;2022-11-20T09:18:55;3.40;99.90
35111;DHT22;21290;50.158;8.658;2022-11-20T09:21:41;3.40;99.90
35111;DHT22;21290;50.158;8.658;2022-11-20T09:24:08;3.50;99.90
35111;DHT22;21290;50.158;8.658;2022-11-20T09:26:35;3.60;99.90
35111;DHT22;21290;50.158;8.658;2022-11-20T09:29:01;3.80;99.90
35111;DHT22;21290;50.158;8.658;2022-11-20T09:31:28;3.90;99.90
35111;DHT22;21290;50.158;8.658;2022-11-20T09:33:54;4.10;99.90
35111;DHT22;21290;50.158;8.658;2022-11-20T09:36:21;4.20;99.90
35111;DHT22;21290;50.158;8.658;2022-11-20T09:38:47;4.20;99.90
35111;DHT22;21290;50.158;8.658;2022-11-20T09:41:36;4.40;99.90
35111;DHT22;21290;50.158;8.658;2022-11-20T09:44:07;4.60;99.90
35111;DHT22;21290;50.158;8.658;2022-11-20T09:52:04;4.90;99.90
35111;DHT22;21290;50.158;8.658;2022-11-20T09:54:37;5.20;99.90
35111;DHT22;21290;50.158;8.658;2022-11-20T09:57:08;6.20;99.90
35111;DHT22;21290;50.158;8.658;2022-11-20T09:59:43;7.00;99.90
35111;DHT22;21290;50.158;8.658;2022-11-20T10:08:08;9.00;99.90
35111;DHT22;21290;50.158;8.658;2022-11-20T10:10:15;9.10;99.90
35111;DHT22;21290;50.158;8.658;2022-11-20T10:13:00;9.10;99.90
35111;DHT22;21290;50.158;8.658;2022-11-20T10:18:19;10.20;99.90
35111;DHT22;21290;50.158;8.658;2022-11-20T10:20:53;9.40;99.90
35111;DHT22;21290;50.158;8.658;2022-11-20T10:23:42;8.50;99.90
35111;DHT22;21290;50.158;8.658;2022-11-20T10:28:56;7.20;99.90
35111;DHT22;21290;50.158;8.658;2022-11-20T10:31:31;6.80;99.90
35111;DHT22;21290;50.158;8.658;2022-11-20T10:34:00;6.50;99.90
35111;DHT22;21290;50.158;8.658;2022-11-20T10:36:49;6.30;99.90
35111;DHT22;21290;50.158;8.658;2022-11-20T10:39:33;6.20;99.90
35111;DHT22;21290;50.158;8.658;2022-11-20T10:42:01;6.00;99.90
35111;DHT22;21290;50.158;8.658;2022-11-20T10:44:29;5.80;99.90
35111;DHT22;21290;50.158;8.658;2022-11-20T10:47:21;5.70;99.90
35111;DHT22;21290;50.158;8.658;2022-11-20T10:49:49;5.50;99.90
35111;DHT22;21290;50.158;8.658;2022-11-20T10:55:08;5.30;99.90
35111;DHT22;21290;50.158;8.658;2022-11-20T11:00:23;5.30;99.90
35111;DHT22;21290;50.158;8.658;2022-11-20T11:02:50;5.30;99.90
35111;DHT22;21290;50.158;8.658;2022-11-20T11:07:48;5.30;99.90
35111;DHT22;21290;50.158;8.658;2022-11-20T11:10:19;5.20;99.90
35111;DHT22;21290;50.158;8.658;2022-11-20T11:12:47;5.20;99.90
35111;DHT22;21290;50.158;8.658;2022-11-20T11:15:24;5.30;99.90
35111;DHT22;21290;50.158;8.658;2022-11-20T11:17:51;5.30;99.90
35111;DHT22;21290;50.158;8.658;2022-11-20T11:20:19;5.30;99.90
35111;DHT22;21290;50.158;8.658;2022-11-20T11:22:47;5.30;99.90
35111;DHT22;21290;50.158;8.658;2022-11-20T11:25:22;5.30;99.90
35111;DHT22;21290;50.158;8.658;2022-11-20T11:27:49;5.30;99.90
35111;DHT22;21290;50.158;8.658;2022-11-20T11:30:17;5.40;99.90
35111;DHT22;21290;50.158;8.658;2022-11-20T11:32:44;5.40;99.90
35111;DHT22;21290;50.158;8.658;2022-11-20T11:35:21;5.50;99.90
35111;DHT22;21290;50.158;8.658;2022-11-20T11:37:48;5.50;99.90
35111;DHT22;21290;50.158;8.658;2022-11-20T11:40:15;5.60;99.90
35111;DHT22;21290;50.158;8.658;2022-11-20T11:42:52;5.60;99.90
35111;DHT22;21290;50.158;8.658;2022-11-20T11:45:19;5.70;99.90
35111;DHT22;21290;50.158;8.658;2022-11-20T11:47:46;5.70;99.90
35111;DHT22;21290;50.158;8.658;2022-11-20T11:50:16;5.80;99.90
35111;DHT22;21290;50.158;8.658;2022-11-20T11:57:59;6.20;99.90
35111;DHT22;21290;50.158;8.658;2022-11-20T12:00:26;6.20;99.90
35111;DHT22;21290;50.158;8.658;2022-11-20T12:02:54;6.30;99.90
35111;DHT22;21290;50.158;8.658;2022-11-20T12:05:23;6.40;99.90
35111;DHT22;21290;50.158;8.658;2022-11-20T12:12:59;6.10;99.90
35111;DHT22;21290;50.158;8.658;2022-11-20T12:15:30;6.10;99.90
35111;DHT22;21290;50.158;8.658;2022-11-20T12:17:57;6.20;99.90
35111;DHT22;21290;50.158;8.658;2022-11-20T12:20:26;6.20;99.90
35111;DHT22;21290;50.158;8.658;2022-11-20T12:23:17;6.20;99.90
35111;DHT22;21290;50.158;8.658;2022-11-20T12:25:40;6.20;99.90
35111;DHT22;21290;50.158;8.658;2022-11-20T12:30:38;6.20;99.90
35111;DHT22;21290;50.158;8.658;2022-11-20T12:36:05;6.10;99.90
35111;DHT22;21290;50.158;8.658;2022-11-20T12:41:23;6.00;99.90
35111;DHT22;21290;50.158;8.658;2022-11-20T12:44:16;5.90;99.90
35111;DHT22;21290;50.158;8.658;2022-11-20T12:47:09;5.80;99.90
35111;DHT22;21290;50.158;8.658;2022-11-20T12:49:48;5.70;99.90
35111;DHT22;21290;50.158;8.658;2022-11-20T12:52:21;5.60;99.90
35111;DHT22;21290;50.158;8.658;2022-11-20T12:57:32;5.70;99.90
35111;DHT22;21290;50.158;8.658;2022-11-20T13:00:10;5.70;99.90
35111;DHT22;21290;50.158;8.658;2022-11-20T13:02:41;5.70;99.90
35111;DHT22;21290;50.158;8.658;2022-11-20T13:07:56;5.90;99.90
35111;DHT22;21290;50.158;8.658;2022-11-20T13:10:31;5.90;99.90
35111;DHT22;21290;50.158;8.658;2022-11-20T13:13:22;5.80;99.90
35111;DHT22;21290;50.158;8.658;2022-11-20T13:15:51;5.80;99.90
35111;DHT22;21290;50.158;8.658;2022-11-20T13:18:20;5.70;99.90
35111;DHT22;21290;50.158;8.658;2022-11-20T13:20:47;5.60;99.90
35111;DHT22;21290;50.158;8.658;2022-11-20T13:23:25;5.50;99.90
35111;DHT22;21290;50.158;8.658;2022-11-20T13:26:02;5.60;99.90
35111;DHT22;21290;50.158;8.658;2022-11-20T13:28:29;5.60;99.90
35111;DHT22;21290;50.158;8.658;2022-11-20T13:30:56;5.70;99.90
35111;DHT22;21290;50.158;8.658;2022-11-20T13:38:22;5.90;99.90
35111;DHT22;21290;50.158;8.658;2022-11-20T13:40:50;6.00;99.90
35111;DHT22;21290;50.158;8.658;2022-11-20T13:43:19;6.20;99.90
35111;DHT22;21290;50.158;8.658;2022-11-20T13:45:54;6.20;99.90
35111;DHT22;21290;50.158;8.658;2022-11-20T13:48:22;6.30;99.90
35111;DHT22;21290;50.158;8.658;2022-11-20T13:56:59;6.20;99.90
35111;DHT22;21290;50.158;8.658;2022-11-20T14:01:30;6.10;99.90
35111;DHT22;21290;50.158;8.658;2022-11-20T14:03:58;6.00;99.90
35111;DHT22;21290;50.158;8.658;2022-11-20T14:06:32;6.00;99.90
35111;DHT22;21290;50.158;8.658;2022-11-20T14:09:00;6.10;99.90
35111;DHT22;21290;50.158;8.658;2022-11-20T14:11:28;6.10;99.90
35111;DHT22;21290;50.158;8.658;2022-11-20T14:14:02;6.10;99.90
35111;DHT22;21290;50.158;8.658;2022-11-20T14:16:30;6.00;99.90
35111;DHT22;21290;50.158;8.658;2022-11-20T14:18:58;6.00;99.90
35111;DHT22;21290;50.158;8.658;2022-11-20T14:21:43;6.00;99.90
35111;DHT22;21290;50.158;8.658;2022-11-20T14:24:10;6.00;99.90
35111;DHT22;21290;50.158;8.658;2022-11-20T14:26:38;5.90;99.90
35111;DHT22;21290;50.158;8.658;2022-11-20T14:29:12;5.80;99.90
35111;DHT22;21290;50.158;8.658;2022-11-20T14:31:39;5.80;99.90
35111;DHT22;21290;50.158;8.658;2022-11-20T14:34:11;5.80;99.90
35111;DHT22;21290;50.158;8.658;2022-11-20T14:36:41;5.70;99.90
35111;DHT22;21290;50.158;8.658;2022-11-20T14:39:10;5.70;99.90
35111;DHT22;21290;50.158;8.658;2022-11-20T14:41:37;5.70;99.90
35111;DHT22;21290;50.158;8.658;2022-11-20T14:44:03;5.70;99.90
35111;DHT22;21290;50.158;8.658;2022-11-20T14:46:30;5.70;99.90
35111;DHT22;21290;50.158;8.658;2022-11-20T14:49:00;5.70;99.90
35111;DHT22;21290;50.158;8.658;2022-11-20T14:51:37;5.70;99.90
35111;DHT22;21290;50.158;8.658;2022-11-20T14:56:37;5.70;99.90
35111;DHT22;21290;50.158;8.658;2022-11-20T14:59:03;5.70;99.90
35111;DHT22;21290;50.158;8.658;2022-11-20T15:01:31;5.70;99.90
35111;DHT22;21290;50.158;8.658;2022-11-20T15:06:27;5.60;99.90
35111;DHT22;21290;50.158;8.658;2022-11-20T15:08:54;5.60;99.90
35111;DHT22;21290;50.158;8.658;2022-11-20T15:11:25;5.60;99.90
35111;DHT22;21290;50.158;8.658;2022-11-20T15:13:53;5.60;99.90
35111;DHT22;21290;50.158;8.658;2022-11-20T15:16:21;5.50;99.90
35111;DHT22;21290;50.158;8.658;2022-11-20T15:18:48;5.40;99.90
35111;DHT22;21290;50.158;8.658;2022-11-20T15:21:16;5.30;99.90
35111;DHT22;21290;50.158;8.658;2022-11-20T15:23:43;5.30;99.90
35111;DHT22;21290;50.158;8.658;2022-11-20T15:26:10;5.30;99.90
35111;DHT22;21290;50.158;8.658;2022-11-20T15:28:44;5.30;99.90
35111;DHT22;21290;50.158;8.658;2022-11-20T15:31:11;5.30;99.90
35111;DHT22;21290;50.158;8.658;2022-11-20T15:33:38;5.30;99.90
35111;DHT22;21290;50.158;8.658;2022-11-20T15:36:04;5.30;99.90
35111;DHT22;21290;50.158;8.658;2022-11-20T15:38:31;5.30;99.90
35111;DHT22;21290;50.158;8.658;2022-11-20T15:40:57;5.30;99.90
35111;DHT22;21290;50.158;8.658;2022-11-20T15:43:24;5.30;99.90
35111;DHT22;21290;50.158;8.658;2022-11-20T15:45:52;5.30;99.90
35111;DHT22;21290;50.158;8.658;2022-11-20T15:53:15;5.40;99.90
35111;DHT22;21290;50.158;8.658;2022-11-20T15:55:42;5.40;99.90
35111;DHT22;21290;50.158;8.658;2022-11-20T15:58:08;5.40;99.90
35111;DHT22;21290;50.158;8.658;2022-11-20T16:00:34;5.50;99.90
35111;DHT22;21290;50.158;8.658;2022-11-20T16:03:01;5.50;99.90
35111;DHT22;21290;50.158;8.658;2022-11-20T16:05:28;5.50;99.90
35111;DHT22;21290;50.158;8.658;2022-11-20T16:07:56;5.40;99.90
35111;DHT22;21290;50.158;8.658;2022-11-20T16:10:23;5.40;99.90
35111;DHT22;21290;50.158;8.658;2022-11-20T16:12:49;5.50;99.90
35111;DHT22;21290;50.158;8.658;2022-11-20T16:15:35;5.50;99.90
35111;DHT22;21290;50.158;8.658;2022-11-20T16:18:14;5.50;99.90
35111;DHT22;21290;50.158;8.658;2022-11-20T16:20:42;5.50;99.90
35111;DHT22;21290;50.158;8.658;2022-11-20T16:23:09;5.50;99.90
35111;DHT22;21290;50.158;8.658;2022-11-20T16:25:35;5.50;99.90
35111;DHT22;21290;50.158;8.658;2022-11-20T16:28:02;5.40;99.90
35111;DHT22;21290;50.158;8.658;2022-11-20T16:30:28;5.40;99.90
35111;DHT22;21290;50.158;8.658;2022-11-20T16:32:56;5.40;99.90
35111;DHT22;21290;50.158;8.658;2022-11-20T16:35:22;5.40;99.90
35111;DHT22;21290;50.158;8.658;2022-11-20T16:37:48;5.30;99.90
35111;DHT22;21290;50.158;8.658;2022-11-20T16:40:15;5.30;99.90
35111;DHT22;21290;50.158;8.658;2022-11-20T16:42:41;5.30;99.90
35111;DHT22;21290;50.158;8.658;2022-11-20T16:45:08;5.30;99.90
35111;DHT22;21290;50.158;8.658;2022-11-20T16:47:35;5.30;99.90
35111;DHT22;21290;50.158;8.658;2022-11-20T16:50:02;5.40;99.90
35111;DHT22;21290;50.158;8.658;2022-11-20T16:52:29;5.40;99.90
35111;DHT22;21290;50.158;8.658;2022-11-20T16:54:56;5.40;99.90
35111;DHT22;21290;50.158;8.658;2022-11-20T16:57:23;5.40;99.90
35111;DHT22;21290;50.158;8.658;2022-11-20T16:59:49;5.40;99.90
35111;DHT22;21290;50.158;8.658;2022-11-20T17:02:16;5.50;99.90
35111;DHT22;21290;50.158;8.658;2022-11-20T17:04:42;5.50;99.90
35111;DHT22;21290;50.158;8.658;2022-11-20T17:07:09;5.50;99.90
35111;DHT22;21290;50.158;8.658;2022-11-20T17:09:36;5.50;99.90